Terminal Aerodrome Forecast
Issued by NWS Brownsville, TX

Home | Current Version | Previous Version | Text Only | Print | Product List | Glossary On
Versions: 1 2 3 4 5 6 7 8 9 10 11 12 13 14
000
FTUS44 KBRO 310900 AAA
TAFHRL
TAF AMD
KHRL 310956Z 3110/0106 00000KT P6SM SKC
     FM311200 03005KT 6SM BR BKN030
     FM311500 03008KT P6SM BKN030
     FM311800 05014KT P6SM VCSH BKN030=

USA.gov is the U.S. government's official web portal to all federal, state and local government web resources and services.